Time;durP1;ratioP1;P1;durP2;ratioP2;P2;SDS_P1;SDS_P2;PMS_P1;PMS_P2;Temp;Humidity;BMP_temperature;BMP_pressure;BME280_temperature;BME280_humidity;BME280_pressure;Samples;Min_cycle;Max_cycle;Signal;HPM_P1;HPM_P2
2022/06/13 00:01:33;;;;;;;5.40;2.13;;;;;;;;;;5041955;28;20652;-89
2022/06/13 00:04:00;;;;;;;5.82;2.47;;;;;;;;;;5042501;28;20182;-88
2022/06/13 00:06:26;;;;;;;4.50;2.25;;;;;;;;;;5041736;28;20185;-87
2022/06/13 00:08:52;;;;;;;4.60;2.55;;;;;;;;;;5042042;28;20193;-88
2022/06/13 00:11:20;;;;;;;6.38;2.28;;;;;;;;;;5043526;28;20627;-86
2022/06/13 00:13:48;;;;;;;4.63;2.40;;;;;;;;;;5041956;28;20716;-88
2022/06/13 00:16:15;;;;;;;6.70;2.58;;;;;;;;;;5041437;28;20178;-87
2022/06/13 00:18:47;;;;;;;4.63;2.60;;;;;;;;;;5043519;28;20589;-88
2022/06/13 00:21:13;;;;;;;7.80;2.20;;;;;;;;;;5043961;28;20209;-87
2022/06/13 00:23:39;;;;;;;4.43;2.38;;;;;;;;;;5041983;28;20735;-88
2022/06/13 00:26:05;;;;;;;5.63;2.42;;;;;;;;;;5043840;28;20214;-87
2022/06/13 00:28:31;;;;;;;5.65;2.58;;;;;;;;;;5042169;28;20202;-89
2022/06/13 00:30:57;;;;;;;6.05;2.47;;;;;;;;;;5041733;28;20232;-87
2022/06/13 00:33:23;;;;;;;6.57;2.45;;;;;;;;;;5043487;28;20210;-87
2022/06/13 00:35:49;;;;;;;4.75;2.40;;;;;;;;;;5041676;28;20785;-86
2022/06/13 00:38:16;;;;;;;6.68;2.92;;;;;;;;;;5043366;28;20205;-86
2022/06/13 00:40:42;;;;;;;8.63;2.55;;;;;;;;;;5042578;28;20190;-85
2022/06/13 00:43:08;;;;;;;6.75;2.92;;;;;;;;;;5042188;28;20565;-84
2022/06/13 00:45:36;;;;;;;5.97;2.50;;;;;;;;;;5042088;28;20183;-86
2022/06/13 00:48:02;;;;;;;5.45;2.65;;;;;;;;;;5041930;28;20252;-86
2022/06/13 00:50:30;;;;;;;4.50;2.40;;;;;;;;;;5041905;28;20186;-86
2022/06/13 00:53:02;;;;;;;5.78;2.78;;;;;;;;;;5041975;28;20655;-86
2022/06/13 00:55:34;;;;;;;4.93;2.30;;;;;;;;;;5041486;28;20400;-86
2022/06/13 00:58:01;;;;;;;4.97;2.67;;;;;;;;;;5041820;28;20209;-88
2022/06/13 01:00:28;;;;;;;8.40;2.70;;;;;;;;;;5041944;28;20657;-88
2022/06/13 01:02:54;;;;;;;5.55;2.47;;;;;;;;;;5041905;28;20551;-88
2022/06/13 01:05:25;;;;;;;5.15;2.75;;;;;;;;;;5040927;28;20862;-88
2022/06/13 01:07:53;;;;;;;4.63;2.40;;;;;;;;;;5041291;28;20355;-86
2022/06/13 01:13:05;;;;;;;3.45;2.40;;;;;;;;;;5042952;28;20239;-88
2022/06/13 01:15:52;;;;;;;4.75;2.50;;;;;;;;;;5041559;28;20202;-88
2022/06/13 01:18:37;;;;;;;8.18;3.08;;;;;;;;;;5041241;28;20530;-87
2022/06/13 01:21:15;;;;;;;5.78;3.03;;;;;;;;;;5042004;28;20220;-87
2022/06/13 01:24:00;;;;;;;4.82;2.30;;;;;;;;;;5042339;28;20191;-87
2022/06/13 01:26:52;;;;;;;4.97;2.95;;;;;;;;;;5042703;28;20197;-87
2022/06/13 01:29:30;;;;;;;5.57;2.30;;;;;;;;;;5044352;28;20672;-88
2022/06/13 01:31:59;;;;;;;7.18;3.10;;;;;;;;;;5045474;28;20201;-88
2022/06/13 01:34:28;;;;;;;3.95;2.40;;;;;;;;;;5044363;28;20205;-87
2022/06/13 01:37:01;;;;;;;6.20;2.78;;;;;;;;;;5046206;28;20614;-87
2022/06/13 01:39:59;;;;;;;3.88;2.45;;;;;;;;;;5044803;28;20182;-88
2022/06/13 01:42:33;;;;;;;6.85;2.55;;;;;;;;;;4997735;28;20221;-87
2022/06/13 01:45:06;;;;;;;5.22;2.47;;;;;;;;;;5045068;28;20178;-88
2022/06/13 01:47:32;;;;;;;4.88;2.35;;;;;;;;;;5044863;28;20229;-87
2022/06/13 01:50:04;;;;;;;5.40;2.50;;;;;;;;;;5045446;28;20247;-88
2022/06/13 01:52:53;;;;;;;6.47;2.13;;;;;;;;;;5044893;28;20220;-87
2022/06/13 01:55:19;;;;;;;5.22;2.47;;;;;;;;;;5031439;28;20226;-87
2022/06/13 01:57:48;;;;;;;4.03;2.47;;;;;;;;;;5046468;28;20224;-89
2022/06/13 02:00:20;;;;;;;8.07;2.60;;;;;;;;;;5044353;28;20198;-87
2022/06/13 02:03:00;;;;;;;6.40;2.33;;;;;;;;;;5044496;28;20273;-88
2022/06/13 02:05:26;;;;;;;6.05;2.50;;;;;;;;;;5044760;28;20177;-88
2022/06/13 02:08:18;;;;;;;4.25;2.05;;;;;;;;;;5044749;28;20703;-88
2022/06/13 02:10:47;;;;;;;4.43;2.15;;;;;;;;;;5042100;28;20237;-88
2022/06/13 02:13:22;;;;;;;7.40;2.45;;;;;;;;;;5044487;28;20183;-87
2022/06/13 02:15:52;;;;;;;4.63;2.17;;;;;;;;;;5045745;28;20219;-87
2022/06/13 02:18:31;;;;;;;6.40;2.10;;;;;;;;;;5043459;28;20692;-87
2022/06/13 02:20:58;;;;;;;3.83;2.40;;;;;;;;;;5043989;28;20213;-87
2022/06/13 02:23:26;;;;;;;3.35;1.92;;;;;;;;;;5044195;28;20182;-87
2022/06/13 02:25:52;;;;;;;7.95;2.63;;;;;;;;;;5044201;28;20186;-87
2022/06/13 02:28:27;;;;;;;5.25;2.30;;;;;;;;;;5043606;28;20442;-88
2022/06/13 02:31:02;;;;;;;5.30;2.30;;;;;;;;;;5045061;28;20174;-86
2022/06/13 02:33:30;;;;;;;3.83;2.08;;;;;;;;;;5044280;28;20182;-86
2022/06/13 02:36:13;;;;;;;4.28;2.10;;;;;;;;;;5045560;28;20672;-86
2022/06/13 02:39:02;;;;;;;5.15;2.20;;;;;;;;;;5045706;28;20189;-86
2022/06/13 02:41:31;;;;;;;5.32;2.35;;;;;;;;;;5043706;28;20269;-86
2022/06/13 02:44:04;;;;;;;3.17;1.95;;;;;;;;;;5044291;28;20193;-86
2022/06/13 02:46:32;;;;;;;4.93;2.10;;;;;;;;;;5043913;28;20209;-86
2022/06/13 02:49:00;;;;;;;4.40;2.28;;;;;;;;;;5044563;28;20178;-86
2022/06/13 02:51:45;;;;;;;4.20;1.80;;;;;;;;;;5043780;28;20178;-87
2022/06/13 02:54:11;;;;;;;4.70;2.25;;;;;;;;;;5044021;28;20270;-86
2022/06/13 02:57:23;;;;;;;4.45;2.30;;;;;;;;;;5043718;28;20198;-87
2022/06/13 03:02:44;;;;;;;4.68;2.35;;;;;;;;;;5029515;28;20213;-86
2022/06/13 03:05:15;;;;;;;7.13;2.65;;;;;;;;;;5043891;28;20174;-87
2022/06/13 03:07:46;;;;;;;5.55;2.45;;;;;;;;;;5043915;28;20202;-87
2022/06/13 03:10:24;;;;;;;4.30;2.33;;;;;;;;;;5043802;28;20178;-86
2022/06/13 03:13:06;;;;;;;5.20;2.20;;;;;;;;;;5043976;28;20182;-88
2022/06/13 03:15:50;;;;;;;3.80;2.17;;;;;;;;;;5043332;28;20205;-88
2022/06/13 03:18:18;;;;;;;4.10;2.45;;;;;;;;;;5045074;28;20272;-87
2022/06/13 03:20:53;;;;;;;5.03;2.60;;;;;;;;;;5044123;28;20178;-86
2022/06/13 03:23:26;;;;;;;4.25;2.28;;;;;;;;;;5043957;28;20724;-86
2022/06/13 03:25:58;;;;;;;3.92;2.10;;;;;;;;;;5043481;28;20179;-86
2022/06/13 03:28:27;;;;;;;4.13;2.50;;;;;;;;;;5043315;28;20579;-87
2022/06/13 03:30:56;;;;;;;3.80;2.33;;;;;;;;;;5045206;28;20186;-86
2022/06/13 03:33:41;;;;;;;4.43;2.72;;;;;;;;;;5043588;28;20182;-87
2022/06/13 03:36:14;;;;;;;4.93;2.30;;;;;;;;;;5044820;28;20261;-86
2022/06/13 03:38:52;;;;;;;8.20;2.65;;;;;;;;;;5043416;28;20180;-86
2022/06/13 03:41:20;;;;;;;6.50;2.50;;;;;;;;;;5043566;28;20201;-86
2022/06/13 03:43:48;;;;;;;4.32;2.28;;;;;;;;;;5043105;28;20755;-88
2022/06/13 03:46:20;;;;;;;8.88;2.97;;;;;;;;;;5042891;28;20228;-87
2022/06/13 03:48:50;;;;;;;4.00;2.20;;;;;;;;;;5043248;28;20749;-86
2022/06/13 03:51:23;;;;;;;5.72;2.53;;;;;;;;;;5042304;28;20393;-87
2022/06/13 03:54:02;;;;;;;5.25;2.20;;;;;;;;;;5042290;28;20652;-86
2022/06/13 03:56:34;;;;;;;6.20;2.83;;;;;;;;;;5042640;28;20261;-87
2022/06/13 03:59:04;;;;;;;7.53;2.70;;;;;;;;;;5042820;28;20208;-86
2022/06/13 04:01:32;;;;;;;5.78;2.33;;;;;;;;;;5042818;28;20194;-86
2022/06/13 04:04:00;;;;;;;5.05;2.05;;;;;;;;;;5042778;28;20178;-86
2022/06/13 04:06:29;;;;;;;4.60;2.60;;;;;;;;;;5043815;28;20177;-86
2022/06/13 04:08:55;;;;;;;5.72;2.38;;;;;;;;;;5044190;28;20667;-86
2022/06/13 04:11:23;;;;;;;4.85;2.38;;;;;;;;;;5042977;28;20185;-86
2022/06/13 04:13:49;;;;;;;7.35;2.58;;;;;;;;;;5042260;28;20183;-88
2022/06/13 04:16:23;;;;;;;5.97;2.72;;;;;;;;;;5042849;28;20181;-87
2022/06/13 04:18:53;;;;;;;2.72;2.03;;;;;;;;;;5042542;28;20488;-86
2022/06/13 04:21:47;;;;;;;7.38;2.53;;;;;;;;;;5042122;28;20178;-86
2022/06/13 04:24:19;;;;;;;4.97;2.60;;;;;;;;;;5042362;28;20183;-89
2022/06/13 04:26:50;;;;;;;5.35;2.53;;;;;;;;;;5042129;28;20202;-86
2022/06/13 04:29:21;;;;;;;4.28;2.47;;;;;;;;;;5042124;28;20182;-86
2022/06/13 04:31:48;;;;;;;3.38;2.05;;;;;;;;;;5041706;28;20186;-86
2022/06/13 04:34:23;;;;;;;6.05;2.63;;;;;;;;;;5042256;28;20229;-88
2022/06/13 04:36:50;;;;;;;7.88;2.53;;;;;;;;;;5041914;28;20202;-86
2022/06/13 04:39:18;;;;;;;5.75;2.70;;;;;;;;;;5042881;28;20231;-86
2022/06/13 04:41:45;;;;;;;3.75;2.10;;;;;;;;;;5043789;28;20181;-88
2022/06/13 04:44:17;;;;;;;7.32;2.30;;;;;;;;;;5044070;28;20269;-87
2022/06/13 04:46:44;;;;;;;5.13;2.33;;;;;;;;;;5043969;28;20209;-87
2022/06/13 04:49:18;;;;;;;3.72;2.40;;;;;;;;;;5042540;28;20178;-86
2022/06/13 04:51:44;;;;;;;5.35;2.80;;;;;;;;;;5043042;28;20232;-86
2022/06/13 04:54:19;;;;;;;7.40;2.53;;;;;;;;;;5041857;28;20217;-86
2022/06/13 04:56:46;;;;;;;4.47;2.50;;;;;;;;;;5042424;28;20533;-87
2022/06/13 04:59:15;;;;;;;5.00;2.20;;;;;;;;;;5044024;28;20253;-86
2022/06/13 05:01:44;;;;;;;7.63;2.35;;;;;;;;;;5042450;28;20181;-86
2022/06/13 05:04:12;;;;;;;6.05;2.33;;;;;;;;;;5046776;28;20196;-83
2022/06/13 05:06:46;;;;;;;5.53;2.08;;;;;;;;;;5044491;28;20213;-82
2022/06/13 05:09:18;;;;;;;4.55;2.22;;;;;;;;;;5047300;28;20217;-83
2022/06/13 05:11:50;;;;;;;5.28;2.25;;;;;;;;;;5048961;28;20217;-86
2022/06/13 05:14:18;;;;;;;5.60;2.05;;;;;;;;;;5048092;28;20206;-85
2022/06/13 05:16:44;;;;;;;6.82;2.38;;;;;;;;;;5048682;28;20256;-84
2022/06/13 05:19:31;;;;;;;4.50;2.05;;;;;;;;;;5046837;28;20174;-82
2022/06/13 05:22:00;;;;;;;6.30;2.17;;;;;;;;;;5047528;28;20182;-81
2022/06/13 05:24:52;;;;;;;5.00;2.03;;;;;;;;;;5047797;28;20240;-82
2022/06/13 05:27:18;;;;;;;4.40;2.60;;;;;;;;;;5047022;28;20206;-82
2022/06/13 05:29:44;;;;;;;5.75;2.20;;;;;;;;;;5046561;28;20202;-81
2022/06/13 05:32:10;;;;;;;3.47;2.40;;;;;;;;;;5047344;28;20186;-81
2022/06/13 05:34:38;;;;;;;4.05;2.20;;;;;;;;;;5045924;28;20316;-83
2022/06/13 05:37:05;;;;;;;4.78;2.20;;;;;;;;;;5046604;28;20741;-83
2022/06/13 05:39:31;;;;;;;8.25;4.28;;;;;;;;;;5046244;28;20656;-82
2022/06/13 05:41:57;;;;;;;4.80;3.50;;;;;;;;;;5047278;28;20198;-83
2022/06/13 05:44:23;;;;;;;7.38;3.78;;;;;;;;;;5047928;28;20232;-82
2022/06/13 05:46:49;;;;;;;6.40;4.05;;;;;;;;;;5048575;28;20844;-82
2022/06/13 05:49:17;;;;;;;6.10;3.75;;;;;;;;;;5049763;28;20182;-83
2022/06/13 05:51:43;;;;;;;5.35;2.30;;;;;;;;;;5048537;28;20268;-82
2022/06/13 05:54:10;;;;;;;6.05;2.40;;;;;;;;;;5048044;28;20279;-82
2022/06/13 05:56:36;;;;;;;5.68;2.30;;;;;;;;;;5047403;28;20292;-83
2022/06/13 05:59:02;;;;;;;6.22;2.20;;;;;;;;;;5048502;28;20178;-82
2022/06/13 06:01:29;;;;;;;6.13;2.83;;;;;;;;;;5047865;28;20171;-82
2022/06/13 06:03:55;;;;;;;5.85;2.80;;;;;;;;;;5047886;28;20206;-85
2022/06/13 06:06:22;;;;;;;7.15;2.58;;;;;;;;;;5047648;28;20655;-82
2022/06/13 06:08:54;;;;;;;4.32;2.28;;;;;;;;;;5047612;28;20621;-83
2022/06/13 06:11:20;;;;;;;6.50;2.53;;;;;;;;;;5047785;28;20237;-82
2022/06/13 06:13:46;;;;;;;5.90;2.50;;;;;;;;;;5048559;28;21045;-85
2022/06/13 06:16:16;;;;;;;6.53;2.25;;;;;;;;;;5047096;28;20174;-82
2022/06/13 06:18:43;;;;;;;4.90;2.20;;;;;;;;;;5048080;28;20178;-83
2022/06/13 06:21:09;;;;;;;6.72;2.67;;;;;;;;;;5047807;28;20189;-84
2022/06/13 06:23:35;;;;;;;5.55;2.42;;;;;;;;;;5047534;28;20182;-83
2022/06/13 06:26:02;;;;;;;5.80;2.60;;;;;;;;;;5048370;28;20548;-82
2022/06/13 06:28:29;;;;;;;4.57;2.50;;;;;;;;;;5047358;28;20205;-82
2022/06/13 06:30:56;;;;;;;7.43;2.40;;;;;;;;;;5048865;28;20178;-82
2022/06/13 06:33:22;;;;;;;5.32;2.15;;;;;;;;;;5046922;28;20542;-82
2022/06/13 06:35:48;;;;;;;6.03;2.80;;;;;;;;;;5048455;28;20236;-86
2022/06/13 06:38:15;;;;;;;4.85;1.95;;;;;;;;;;5048684;28;20233;-82
2022/06/13 06:40:41;;;;;;;5.47;2.53;;;;;;;;;;5046948;28;20555;-84
2022/06/13 06:43:07;;;;;;;5.75;2.53;;;;;;;;;;5047280;28;20532;-82
2022/06/13 06:45:34;;;;;;;7.50;2.65;;;;;;;;;;5046307;28;20893;-83
2022/06/13 06:48:00;;;;;;;8.35;2.30;;;;;;;;;;5045681;28;20235;-87
2022/06/13 06:50:27;;;;;;;3.92;2.50;;;;;;;;;;5045155;28;20186;-82
2022/06/13 06:52:54;;;;;;;8.90;2.47;;;;;;;;;;5048070;28;20178;-83
2022/06/13 07:00:52;;;;;;;6.53;2.95;;;;;;;;;;5046007;28;20244;-85
2022/06/13 07:03:18;;;;;;;6.90;3.45;;;;;;;;;;5044750;28;20591;-82
2022/06/13 07:05:46;;;;;;;7.65;3.38;;;;;;;;;;5044043;28;20682;-82
2022/06/13 07:08:12;;;;;;;5.95;2.55;;;;;;;;;;5044374;28;20679;-84
2022/06/13 07:10:38;;;;;;;5.45;2.72;;;;;;;;;;5044349;28;20187;-82
2022/06/13 07:13:04;;;;;;;8.13;3.05;;;;;;;;;;5044050;28;20198;-84
2022/06/13 07:15:30;;;;;;;6.05;3.20;;;;;;;;;;5044321;28;20343;-83
2022/06/13 07:17:56;;;;;;;5.72;3.58;;;;;;;;;;5043948;28;20210;-84
2022/06/13 07:20:22;;;;;;;7.10;3.28;;;;;;;;;;5044938;28;20257;-82
2022/06/13 07:22:50;;;;;;;9.68;3.10;;;;;;;;;;5045030;28;20297;-82
2022/06/13 07:25:17;;;;;;;7.63;2.97;;;;;;;;;;5043722;28;20484;-82
2022/06/13 07:27:43;;;;;;;7.25;2.97;;;;;;;;;;5043719;28;20241;-86
2022/06/13 07:30:10;;;;;;;7.60;2.58;;;;;;;;;;5045704;28;20194;-83
2022/06/13 07:32:36;;;;;;;5.50;2.40;;;;;;;;;;5043417;28;20653;-83
2022/06/13 07:35:02;;;;;;;4.90;2.30;;;;;;;;;;5044682;28;20217;-85
2022/06/13 07:40:13;;;;;;;5.30;2.38;;;;;;;;;;5045849;28;20186;-83
2022/06/13 07:42:47;;;;;;;4.88;2.17;;;;;;;;;;5045244;28;20811;-84
2022/06/13 07:45:15;;;;;;;7.65;2.20;;;;;;;;;;5046964;28;20251;-82
2022/06/13 07:47:42;;;;;;;7.68;2.60;;;;;;;;;;5046145;28;20297;-85
2022/06/13 07:50:08;;;;;;;5.68;2.17;;;;;;;;;;5046490;28;20175;-83
2022/06/13 07:52:34;;;;;;;6.28;2.03;;;;;;;;;;5046250;28;20188;-84
2022/06/13 07:55:00;;;;;;;4.18;2.05;;;;;;;;;;5043323;28;20217;-87
2022/06/13 07:57:26;;;;;;;5.22;1.90;;;;;;;;;;5042815;28;20197;-88
2022/06/13 07:59:52;;;;;;;4.13;2.28;;;;;;;;;;5041657;28;20201;-87
2022/06/13 08:02:19;;;;;;;3.50;2.00;;;;;;;;;;5041253;28;20182;-87
2022/06/13 08:04:45;;;;;;;6.60;2.13;;;;;;;;;;5041045;28;20186;-87
2022/06/13 08:07:13;;;;;;;7.18;2.35;;;;;;;;;;5041807;28;20752;-89
2022/06/13 08:09:39;;;;;;;5.80;2.35;;;;;;;;;;5041784;28;20184;-89
2022/06/13 08:12:06;;;;;;;4.93;1.88;;;;;;;;;;5043549;28;20196;-85
2022/06/13 08:14:32;;;;;;;4.80;2.25;;;;;;;;;;5047738;28;20202;-85
2022/06/13 08:16:58;;;;;;;6.45;2.00;;;;;;;;;;5049392;28;20210;-84
2022/06/13 08:19:24;;;;;;;5.18;2.20;;;;;;;;;;5046094;28;20655;-83
2022/06/13 08:21:51;;;;;;;5.68;2.20;;;;;;;;;;5049188;28;20261;-84
2022/06/13 08:24:17;;;;;;;3.33;1.83;;;;;;;;;;5050056;28;20285;-84
2022/06/13 08:26:43;;;;;;;5.15;1.73;;;;;;;;;;5042641;28;20216;-84
2022/06/13 08:29:10;;;;;;;6.95;2.10;;;;;;;;;;5047741;28;20189;-84
2022/06/13 08:31:36;;;;;;;4.97;1.98;;;;;;;;;;5046699;28;20174;-84
2022/06/13 08:34:02;;;;;;;5.65;2.20;;;;;;;;;;5051209;28;20174;-84
2022/06/13 08:36:28;;;;;;;4.65;2.10;;;;;;;;;;5048946;28;20193;-84
2022/06/13 08:38:54;;;;;;;6.28;2.30;;;;;;;;;;5045003;28;20260;-84
2022/06/13 08:41:33;;;;;;;4.78;2.00;;;;;;;;;;5045406;28;20174;-83
2022/06/13 08:44:07;;;;;;;4.38;2.00;;;;;;;;;;5050608;28;20214;-84
2022/06/13 08:46:48;;;;;;;5.05;1.90;;;;;;;;;;5049901;28;20210;-84
2022/06/13 08:49:14;;;;;;;5.60;2.13;;;;;;;;;;5046567;28;20170;-84
2022/06/13 08:51:40;;;;;;;5.75;2.58;;;;;;;;;;5050087;28;20265;-85
2022/06/13 08:54:08;;;;;;;4.15;2.00;;;;;;;;;;5049560;28;20209;-84
2022/06/13 08:56:35;;;;;;;6.32;2.75;;;;;;;;;;5046257;28;20509;-83
2022/06/13 08:59:24;;;;;;;4.47;2.25;;;;;;;;;;5048107;28;20206;-84
2022/06/13 09:01:56;;;;;;;5.20;1.83;;;;;;;;;;5045475;28;20183;-84
2022/06/13 09:04:25;;;;;;;4.18;1.90;;;;;;;;;;5046977;28;20178;-84
2022/06/13 09:06:59;;;;;;;5.75;2.30;;;;;;;;;;5047868;28;20224;-84
2022/06/13 09:09:30;;;;;;;4.30;2.10;;;;;;;;;;5049275;28;20243;-84
2022/06/13 09:12:12;;;;;;;5.43;1.70;;;;;;;;;;5049547;28;20744;-84
2022/06/13 09:14:43;;;;;;;4.25;2.10;;;;;;;;;;5045075;28;20710;-84
2022/06/13 09:17:13;;;;;;;4.43;1.92;;;;;;;;;;5044209;28;20451;-86
2022/06/13 09:19:49;;;;;;;3.78;1.92;;;;;;;;;;5041692;28;20178;-88
2022/06/13 09:22:39;;;;;;;4.05;1.75;;;;;;;;;;5039363;28;20181;-87
2022/06/13 09:25:11;;;;;;;6.72;1.80;;;;;;;;;;4993825;28;20202;-87
2022/06/13 09:27:41;;;;;;;3.50;1.80;;;;;;;;;;5039438;28;20229;-86
2022/06/13 09:30:07;;;;;;;3.55;1.80;;;;;;;;;;5040650;28;20220;-87
2022/06/13 09:32:36;;;;;;;5.93;2.10;;;;;;;;;;5040662;28;20185;-88
2022/06/13 09:35:14;;;;;;;3.05;1.40;;;;;;;;;;5040460;28;20225;-85
2022/06/13 09:37:48;;;;;;;5.05;1.45;;;;;;;;;;5041714;28;20209;-84
2022/06/13 09:40:16;;;;;;;3.22;1.27;;;;;;;;;;5044057;28;20213;-86
2022/06/13 09:42:53;;;;;;;2.00;1.00;;;;;;;;;;5045965;28;20229;-84
2022/06/13 09:45:28;;;;;;;3.75;1.40;;;;;;;;;;5045083;28;20186;-87
2022/06/13 09:48:09;;;;;;;3.88;1.63;;;;;;;;;;5046688;28;20229;-87
2022/06/13 09:50:48;;;;;;;2.85;1.55;;;;;;;;;;5048377;28;20190;-86
2022/06/13 09:53:26;;;;;;;2.95;1.30;;;;;;;;;;5048313;28;20185;-85
2022/06/13 09:55:55;;;;;;;3.17;1.58;;;;;;;;;;5048224;28;20218;-86
2022/06/13 09:58:40;;;;;;;4.63;1.65;;;;;;;;;;5048825;28;20198;-86
2022/06/13 10:01:09;;;;;;;3.53;1.77;;;;;;;;;;5047711;28;20178;-83
2022/06/13 10:03:44;;;;;;;3.17;1.50;;;;;;;;;;5049165;28;20233;-85
2022/06/13 10:06:13;;;;;;;2.17;1.20;;;;;;;;;;5046651;28;20189;-85
2022/06/13 10:09:00;;;;;;;3.63;1.60;;;;;;;;;;5047307;28;20558;-85
2022/06/13 10:11:45;;;;;;;3.90;1.67;;;;;;;;;;5049560;28;20201;-84
2022/06/13 10:14:15;;;;;;;4.95;1.70;;;;;;;;;;5048724;28;20193;-86
2022/06/13 10:16:47;;;;;;;3.35;1.30;;;;;;;;;;5046994;28;20209;-87
2022/06/13 10:19:22;;;;;;;4.13;1.48;;;;;;;;;;5045380;28;20754;-85
2022/06/13 10:21:49;;;;;;;3.03;1.50;;;;;;;;;;5043470;28;20178;-87
2022/06/13 10:24:31;;;;;;;4.82;1.58;;;;;;;;;;5043805;28;20227;-84
2022/06/13 10:27:12;;;;;;;4.65;1.63;;;;;;;;;;5047424;28;20199;-88
2022/06/13 10:29:48;;;;;;;3.20;1.58;;;;;;;;;;5046247;28;20205;-87
2022/06/13 10:32:23;;;;;;;3.90;1.42;;;;;;;;;;5045619;28;20652;-84
2022/06/13 10:34:48;;;;;;;3.55;1.40;;;;;;;;;;5045901;28;20220;-84
2022/06/13 10:37:20;;;;;;;2.28;1.20;;;;;;;;;;5047753;28;20684;-87
2022/06/13 10:39:47;;;;;;;2.85;1.40;;;;;;;;;;5049450;28;20182;-85
2022/06/13 10:42:19;;;;;;;2.35;1.13;;;;;;;;;;5047371;28;20174;-85
2022/06/13 10:44:45;;;;;;;5.22;1.50;;;;;;;;;;5045250;28;20197;-87
2022/06/13 10:47:17;;;;;;;3.50;1.60;;;;;;;;;;5047183;28;20617;-86
2022/06/13 10:49:48;;;;;;;3.72;1.40;;;;;;;;;;5049346;28;20577;-83
2022/06/13 10:52:15;;;;;;;3.13;1.30;;;;;;;;;;5049369;28;20292;-84
2022/06/13 10:54:44;;;;;;;4.35;1.52;;;;;;;;;;5048793;28;20581;-86
2022/06/13 10:57:13;;;;;;;4.82;1.40;;;;;;;;;;5046316;28;20209;-84
2022/06/13 10:59:39;;;;;;;2.03;1.20;;;;;;;;;;5043845;28;20201;-86
2022/06/13 11:02:21;;;;;;;2.80;1.38;;;;;;;;;;5042862;28;20183;-87
2022/06/13 11:05:02;;;;;;;3.78;1.30;;;;;;;;;;5049799;28;20186;-88
2022/06/13 11:07:28;;;;;;;2.45;1.45;;;;;;;;;;5049707;28;20260;-86
2022/06/13 11:09:58;;;;;;;3.25;1.30;;;;;;;;;;5048290;28;20186;-88
2022/06/13 11:12:27;;;;;;;4.75;1.42;;;;;;;;;;5047979;28;20218;-86
2022/06/13 11:23:44;;;;;;;1.75;0.70;;;;;;;;;;5046028;28;20283;-86
2022/06/13 11:28:55;;;;;;;1.80;1.00;;;;;;;;;;5048258;28;20722;-84
2022/06/13 11:31:25;;;;;;;0.95;0.80;;;;;;;;;;5044991;28;20186;-83
2022/06/13 11:33:53;;;;;;;1.10;0.95;;;;;;;;;;5044666;28;20268;-84
2022/06/13 11:36:23;;;;;;;1.38;1.10;;;;;;;;;;5044572;28;20249;-86
2022/06/13 11:38:52;;;;;;;1.25;0.82;;;;;;;;;;5044672;28;21120;-83
2022/06/13 11:41:20;;;;;;;1.95;1.10;;;;;;;;;;5043406;28;20189;-89
2022/06/13 11:43:52;;;;;;;1.30;1.00;;;;;;;;;;5045176;28;20174;-83
2022/06/13 11:46:24;;;;;;;0.90;0.70;;;;;;;;;;5042313;28;20178;-83
2022/06/13 11:48:51;;;;;;;1.42;1.10;;;;;;;;;;5042681;28;20182;-87
2022/06/13 11:51:22;;;;;;;2.03;1.00;;;;;;;;;;5046274;28;20217;-85
2022/06/13 11:53:49;;;;;;;5.25;2.05;;;;;;;;;;5048098;28;20604;-86
2022/06/13 11:56:24;;;;;;;2.90;1.35;;;;;;;;;;5050461;28;20312;-87
2022/06/13 11:58:51;;;;;;;2.45;1.25;;;;;;;;;;5048179;28;20505;-86
2022/06/13 12:01:21;;;;;;;3.22;1.50;;;;;;;;;;5043224;28;20206;-83
2022/06/13 12:03:49;;;;;;;2.95;1.30;;;;;;;;;;5043651;28;20652;-84
2022/06/13 12:06:17;;;;;;;1.60;1.10;;;;;;;;;;5043334;28;20667;-83
2022/06/13 12:08:48;;;;;;;3.42;1.33;;;;;;;;;;5043709;28;20269;-83
2022/06/13 12:11:14;;;;;;;4.28;1.40;;;;;;;;;;5044975;28;20190;-84
2022/06/13 12:13:42;;;;;;;3.67;1.35;;;;;;;;;;5043892;28;20797;-84
2022/06/13 12:16:27;;;;;;;1.85;1.40;;;;;;;;;;5044900;28;20715;-86
2022/06/13 12:18:54;;;;;;;1.63;1.00;;;;;;;;;;5047170;28;20269;-84
2022/06/13 12:21:23;;;;;;;2.30;1.00;;;;;;;;;;5048068;28;20244;-84
2022/06/13 12:24:02;;;;;;;0.70;0.70;;;;;;;;;;5047259;28;21336;-84
2022/06/13 12:26:31;;;;;;;1.33;1.02;;;;;;;;;;5044914;28;20277;-86
2022/06/13 12:29:07;;;;;;;1.75;1.15;;;;;;;;;;5045599;28;20186;-85
2022/06/13 12:31:48;;;;;;;2.00;1.40;;;;;;;;;;5045552;28;20706;-84
2022/06/13 12:34:19;;;;;;;3.03;1.42;;;;;;;;;;5045099;28;20189;-84
2022/06/13 12:36:55;;;;;;;3.08;1.23;;;;;;;;;;5046459;28;20195;-86
2022/06/13 12:39:39;;;;;;;2.28;1.20;;;;;;;;;;5046369;28;20181;-87
2022/06/13 12:42:17;;;;;;;2.47;1.25;;;;;;;;;;5045356;28;20272;-83
2022/06/13 12:44:52;;;;;;;3.00;1.30;;;;;;;;;;5043989;28;20671;-84
2022/06/13 12:47:39;;;;;;;2.50;0.93;;;;;;;;;;5042137;28;20204;-84
2022/06/13 12:50:08;;;;;;;1.88;1.30;;;;;;;;;;5043226;28;20658;-89
2022/06/13 12:52:46;;;;;;;2.17;1.13;;;;;;;;;;5043259;28;20209;-86
2022/06/13 12:55:18;;;;;;;3.00;1.52;;;;;;;;;;5043902;28;20244;-86
2022/06/13 12:57:46;;;;;;;3.00;1.58;;;;;;;;;;5044534;28;20209;-87
2022/06/13 13:00:23;;;;;;;2.47;1.50;;;;;;;;;;5046268;28;20259;-84
2022/06/13 13:03:01;;;;;;;3.95;1.40;;;;;;;;;;5044349;28;20221;-83
2022/06/13 13:05:53;;;;;;;2.45;1.48;;;;;;;;;;5046217;28;20656;-86
2022/06/13 13:08:38;;;;;;;3.25;1.65;;;;;;;;;;5042089;28;20210;-85
2022/06/13 13:11:10;;;;;;;2.30;1.45;;;;;;;;;;5046309;28;20248;-84
2022/06/13 13:13:49;;;;;;;3.20;1.48;;;;;;;;;;5043716;28;20261;-83
2022/06/13 13:16:33;;;;;;;3.17;1.20;;;;;;;;;;5042593;28;20236;-85
2022/06/13 13:19:34;;;;;;;3.00;1.55;;;;;;;;;;5044067;28;20238;-86
2022/06/13 13:22:26;;;;;;;2.05;1.20;;;;;;;;;;4955162;28;20180;-83
2022/06/13 13:25:05;;;;;;;1.30;0.90;;;;;;;;;;5043390;28;20186;-83
2022/06/13 13:27:36;;;;;;;1.00;0.90;;;;;;;;;;5047607;28;20202;-85
2022/06/13 13:30:14;;;;;;;1.55;0.95;;;;;;;;;;5048778;28;20229;-83
2022/06/13 13:32:53;;;;;;;1.10;0.73;;;;;;;;;;5047723;28;20186;-83
2022/06/13 13:35:34;;;;;;;2.17;1.00;;;;;;;;;;5046022;28;20212;-83
2022/06/13 13:38:09;;;;;;;1.98;1.10;;;;;;;;;;5048128;28;20702;-83
2022/06/13 13:40:54;;;;;;;1.85;1.00;;;;;;;;;;5049191;28;20178;-86
2022/06/13 13:43:26;;;;;;;2.28;0.98;;;;;;;;;;5048015;28;20289;-85
2022/06/13 13:46:03;;;;;;;2.17;1.00;;;;;;;;;;5049043;28;20369;-83
2022/06/13 13:48:29;;;;;;;2.00;1.08;;;;;;;;;;5046222;28;20679;-83
2022/06/13 13:50:55;;;;;;;1.92;0.90;;;;;;;;;;5047393;28;20189;-85
2022/06/13 13:53:23;;;;;;;1.77;1.10;;;;;;;;;;5046198;28;20609;-83
2022/06/13 13:55:55;;;;;;;1.48;0.75;;;;;;;;;;5045622;28;20589;-85
2022/06/13 13:58:31;;;;;;;2.03;1.00;;;;;;;;;;5045613;28;20237;-86
2022/06/13 14:00:57;;;;;;;2.80;1.00;;;;;;;;;;5051715;28;20181;-87
2022/06/13 14:03:42;;;;;;;2.83;1.08;;;;;;;;;;5049129;28;20182;-86
2022/06/13 14:06:11;;;;;;;2.65;0.90;;;;;;;;;;5046489;28;20218;-85
2022/06/13 14:08:38;;;;;;;1.65;0.93;;;;;;;;;;5047535;28;20213;-84
2022/06/13 14:11:05;;;;;;;2.03;1.00;;;;;;;;;;5047694;28;20198;-84
2022/06/13 14:13:33;;;;;;;2.83;1.40;;;;;;;;;;5047857;28;20201;-83
2022/06/13 14:16:01;;;;;;;2.95;2.40;;;;;;;;;;5049666;28;20213;-84
2022/06/13 14:18:29;;;;;;;3.83;1.40;;;;;;;;;;5047969;28;20198;-83
2022/06/13 14:20:55;;;;;;;4.95;1.35;;;;;;;;;;5046663;28;20187;-84
2022/06/13 14:23:24;;;;;;;2.72;1.63;;;;;;;;;;5045127;28;20811;-84
2022/06/13 14:25:51;;;;;;;3.13;1.10;;;;;;;;;;5044574;28;20182;-89
2022/06/13 14:28:18;;;;;;;2.13;1.08;;;;;;;;;;5044342;28;20594;-83
2022/06/13 14:36:47;;;;;;;3.67;1.27;;;;;;;;;;5043781;28;20221;-84
2022/06/13 14:39:15;;;;;;;2.17;1.40;;;;;;;;;;5043548;28;20710;-83
2022/06/13 14:41:42;;;;;;;1.95;1.30;;;;;;;;;;5043706;28;20183;-84
2022/06/13 14:44:08;;;;;;;2.35;1.67;;;;;;;;;;5043133;28;20188;-86
2022/06/13 14:46:40;;;;;;;1.83;0.88;;;;;;;;;;5044168;28;20218;-83
2022/06/13 14:49:15;;;;;;;2.50;0.90;;;;;;;;;;5045138;28;20175;-84
2022/06/13 14:52:00;;;;;;;2.17;1.00;;;;;;;;;;5042914;28;20906;-85
2022/06/13 14:54:44;;;;;;;1.42;0.80;;;;;;;;;;5042313;28;20198;-83
2022/06/13 14:57:29;;;;;;;1.25;0.75;;;;;;;;;;5042341;28;20301;-83
2022/06/13 15:00:04;;;;;;;1.23;0.70;;;;;;;;;;5042738;28;20269;-83
2022/06/13 15:02:32;;;;;;;1.48;0.60;;;;;;;;;;5043182;28;20185;-83
2022/06/13 15:05:03;;;;;;;1.95;0.60;;;;;;;;;;5043057;28;20648;-84
2022/06/13 15:07:35;;;;;;;1.20;0.90;;;;;;;;;;5042443;28;20301;-84
2022/06/13 15:10:04;;;;;;;1.08;0.90;;;;;;;;;;5043359;28;20186;-84
2022/06/13 15:12:38;;;;;;;1.70;0.68;;;;;;;;;;5042603;28;20224;-83
2022/06/13 15:15:07;;;;;;;0.60;0.47;;;;;;;;;;5042895;28;20194;-87
2022/06/13 15:17:34;;;;;;;1.35;0.68;;;;;;;;;;5042519;28;20202;-86
2022/06/13 15:20:01;;;;;;;1.83;0.52;;;;;;;;;;5043900;28;20224;-84
2022/06/13 15:22:30;;;;;;;1.48;0.63;;;;;;;;;;5044040;28;20206;-83
2022/06/13 15:24:58;;;;;;;1.00;0.50;;;;;;;;;;5045707;28;21116;-83
2022/06/13 15:27:25;;;;;;;0.73;0.50;;;;;;;;;;5044932;28;20229;-85
2022/06/13 15:30:11;;;;;;;1.30;0.60;;;;;;;;;;5046904;28;20182;-88
2022/06/13 15:32:39;;;;;;;1.45;0.38;;;;;;;;;;5043561;28;20749;-86
2022/06/13 15:35:13;;;;;;;1.85;0.57;;;;;;;;;;5044184;28;20659;-85
2022/06/13 15:37:47;;;;;;;1.80;0.60;;;;;;;;;;5044164;28;20356;-83
2022/06/13 15:40:24;;;;;;;1.88;0.47;;;;;;;;;;5043040;28;20566;-84